sensor_id;sensor_type;location;lat;lon;timestamp;P1;durP1;ratioP1;P2;durP2;ratioP2
65328;SDS011;51941;52.210;5.158;2023-06-10T00:01:24;6.85;;;3.78;;
65328;SDS011;51941;52.210;5.158;2023-06-10T00:03:50;7.05;;;3.80;;
65328;SDS011;51941;52.210;5.158;2023-06-10T00:06:18;5.43;;;3.55;;
65328;SDS011;51941;52.210;5.158;2023-06-10T00:08:46;8.45;;;3.90;;
65328;SDS011;51941;52.210;5.158;2023-06-10T00:11:13;6.82;;;3.97;;
65328;SDS011;51941;52.210;5.158;2023-06-10T00:13:40;7.82;;;4.10;;
65328;SDS011;51941;52.210;5.158;2023-06-10T00:16:06;6.28;;;3.40;;
65328;SDS011;51941;52.210;5.158;2023-06-10T00:18:33;6.60;;;3.58;;
65328;SDS011;51941;52.210;5.158;2023-06-10T00:21:02;5.00;;;3.40;;
65328;SDS011;51941;52.210;5.158;2023-06-10T00:23:29;11.23;;;4.50;;
65328;SDS011;51941;52.210;5.158;2023-06-10T00:25:59;5.60;;;3.40;;
65328;SDS011;51941;52.210;5.158;2023-06-10T00:28:25;7.20;;;3.40;;
65328;SDS011;51941;52.210;5.158;2023-06-10T00:33:22;3.95;;;3.40;;
65328;SDS011;51941;52.210;5.158;2023-06-10T00:35:49;5.57;;;3.83;;
65328;SDS011;51941;52.210;5.158;2023-06-10T00:38:16;4.78;;;3.35;;
65328;SDS011;51941;52.210;5.158;2023-06-10T00:40:42;5.97;;;3.50;;
65328;SDS011;51941;52.210;5.158;2023-06-10T00:43:11;4.97;;;3.58;;
65328;SDS011;51941;52.210;5.158;2023-06-10T00:45:37;6.63;;;3.30;;
65328;SDS011;51941;52.210;5.158;2023-06-10T00:48:04;7.97;;;3.55;;
65328;SDS011;51941;52.210;5.158;2023-06-10T00:50:31;5.72;;;3.53;;
65328;SDS011;51941;52.210;5.158;2023-06-10T00:53:00;7.47;;;3.92;;
65328;SDS011;51941;52.210;5.158;2023-06-10T00:55:28;4.05;;;3.25;;
65328;SDS011;51941;52.210;5.158;2023-06-10T00:57:56;5.72;;;3.03;;
65328;SDS011;51941;52.210;5.158;2023-06-10T01:00:26;8.10;;;3.28;;
65328;SDS011;51941;52.210;5.158;2023-06-10T01:02:53;6.30;;;3.50;;
65328;SDS011;51941;52.210;5.158;2023-06-10T01:05:20;5.65;;;3.55;;
65328;SDS011;51941;52.210;5.158;2023-06-10T01:07:52;6.30;;;3.72;;
65328;SDS011;51941;52.210;5.158;2023-06-10T01:10:28;5.80;;;3.72;;
65328;SDS011;51941;52.210;5.158;2023-06-10T01:12:59;8.43;;;3.72;;
65328;SDS011;51941;52.210;5.158;2023-06-10T01:15:30;7.07;;;3.28;;
65328;SDS011;51941;52.210;5.158;2023-06-10T01:17:58;4.43;;;3.75;;
65328;SDS011;51941;52.210;5.158;2023-06-10T01:20:29;5.90;;;3.60;;
65328;SDS011;51941;52.210;5.158;2023-06-10T01:22:58;7.07;;;3.63;;
65328;SDS011;51941;52.210;5.158;2023-06-10T01:25:28;7.47;;;3.70;;
65328;SDS011;51941;52.210;5.158;2023-06-10T01:28:00;4.93;;;3.20;;
65328;SDS011;51941;52.210;5.158;2023-06-10T01:30:33;6.15;;;3.38;;
65328;SDS011;51941;52.210;5.158;2023-06-10T01:33:07;5.55;;;3.38;;
65328;SDS011;51941;52.210;5.158;2023-06-10T01:35:36;6.60;;;3.22;;
65328;SDS011;51941;52.210;5.158;2023-06-10T01:38:05;4.03;;;3.35;;
65328;SDS011;51941;52.210;5.158;2023-06-10T01:43:00;5.78;;;3.83;;
65328;SDS011;51941;52.210;5.158;2023-06-10T01:45:28;6.88;;;3.58;;
65328;SDS011;51941;52.210;5.158;2023-06-10T01:47:54;5.70;;;3.22;;
65328;SDS011;51941;52.210;5.158;2023-06-10T01:50:21;5.30;;;3.63;;
65328;SDS011;51941;52.210;5.158;2023-06-10T01:52:48;6.40;;;3.90;;
65328;SDS011;51941;52.210;5.158;2023-06-10T01:55:16;8.68;;;3.97;;
65328;SDS011;51941;52.210;5.158;2023-06-10T01:57:43;7.82;;;3.67;;
65328;SDS011;51941;52.210;5.158;2023-06-10T02:00:10;7.72;;;3.38;;
65328;SDS011;51941;52.210;5.158;2023-06-10T02:02:40;4.97;;;3.58;;
65328;SDS011;51941;52.210;5.158;2023-06-10T02:05:07;6.75;;;3.63;;
65328;SDS011;51941;52.210;5.158;2023-06-10T02:07:35;7.32;;;4.00;;
65328;SDS011;51941;52.210;5.158;2023-06-10T02:10:01;5.25;;;3.38;;
65328;SDS011;51941;52.210;5.158;2023-06-10T02:12:29;4.82;;;3.92;;
65328;SDS011;51941;52.210;5.158;2023-06-10T02:14:56;5.10;;;3.53;;
65328;SDS011;51941;52.210;5.158;2023-06-10T02:17:23;6.15;;;3.80;;
65328;SDS011;51941;52.210;5.158;2023-06-10T02:19:49;5.25;;;4.10;;
65328;SDS011;51941;52.210;5.158;2023-06-10T02:22:19;8.90;;;3.88;;
65328;SDS011;51941;52.210;5.158;2023-06-10T02:24:47;5.05;;;3.55;;
65328;SDS011;51941;52.210;5.158;2023-06-10T02:27:14;8.05;;;3.70;;
65328;SDS011;51941;52.210;5.158;2023-06-10T02:29:42;5.43;;;3.60;;
65328;SDS011;51941;52.210;5.158;2023-06-10T02:32:10;6.05;;;3.70;;
65328;SDS011;51941;52.210;5.158;2023-06-10T02:34:36;6.05;;;3.20;;
65328;SDS011;51941;52.210;5.158;2023-06-10T02:37:05;5.88;;;3.92;;
65328;SDS011;51941;52.210;5.158;2023-06-10T02:39:32;8.40;;;4.10;;
65328;SDS011;51941;52.210;5.158;2023-06-10T02:42:00;6.13;;;4.07;;
65328;SDS011;51941;52.210;5.158;2023-06-10T02:44:26;4.22;;;3.83;;
65328;SDS011;51941;52.210;5.158;2023-06-10T02:46:55;6.03;;;4.13;;
65328;SDS011;51941;52.210;5.158;2023-06-10T02:49:21;7.18;;;4.03;;
65328;SDS011;51941;52.210;5.158;2023-06-10T02:51:49;8.88;;;4.10;;
65328;SDS011;51941;52.210;5.158;2023-06-10T02:54:18;7.85;;;4.13;;
65328;SDS011;51941;52.210;5.158;2023-06-10T02:56:45;6.18;;;4.22;;
65328;SDS011;51941;52.210;5.158;2023-06-10T02:59:18;5.28;;;4.00;;
65328;SDS011;51941;52.210;5.158;2023-06-10T03:01:45;6.60;;;4.15;;
65328;SDS011;51941;52.210;5.158;2023-06-10T03:04:13;6.35;;;4.50;;
65328;SDS011;51941;52.210;5.158;2023-06-10T03:06:48;6.15;;;4.50;;
65328;SDS011;51941;52.210;5.158;2023-06-10T03:09:21;7.75;;;4.40;;
65328;SDS011;51941;52.210;5.158;2023-06-10T03:11:51;8.38;;;4.22;;
65328;SDS011;51941;52.210;5.158;2023-06-10T03:14:18;7.05;;;3.95;;
65328;SDS011;51941;52.210;5.158;2023-06-10T03:16:45;7.10;;;4.78;;
65328;SDS011;51941;52.210;5.158;2023-06-10T03:19:14;6.47;;;4.05;;
65328;SDS011;51941;52.210;5.158;2023-06-10T03:21:49;5.68;;;4.35;;
65328;SDS011;51941;52.210;5.158;2023-06-10T03:24:20;6.90;;;4.25;;
65328;SDS011;51941;52.210;5.158;2023-06-10T03:26:47;9.60;;;4.55;;
65328;SDS011;51941;52.210;5.158;2023-06-10T03:29:15;9.85;;;5.13;;
65328;SDS011;51941;52.210;5.158;2023-06-10T03:31:43;11.15;;;4.20;;
65328;SDS011;51941;52.210;5.158;2023-06-10T03:34:10;6.00;;;4.03;;
65328;SDS011;51941;52.210;5.158;2023-06-10T03:36:38;8.15;;;4.18;;
65328;SDS011;51941;52.210;5.158;2023-06-10T03:39:08;7.82;;;4.43;;
65328;SDS011;51941;52.210;5.158;2023-06-10T03:41:36;6.53;;;4.30;;
65328;SDS011;51941;52.210;5.158;2023-06-10T03:44:05;9.90;;;4.18;;
65328;SDS011;51941;52.210;5.158;2023-06-10T03:46:32;7.00;;;3.95;;
65328;SDS011;51941;52.210;5.158;2023-06-10T03:48:59;8.43;;;4.45;;
65328;SDS011;51941;52.210;5.158;2023-06-10T03:51:27;8.27;;;4.25;;
65328;SDS011;51941;52.210;5.158;2023-06-10T03:53:55;8.75;;;4.35;;
65328;SDS011;51941;52.210;5.158;2023-06-10T03:56:22;8.30;;;4.53;;
65328;SDS011;51941;52.210;5.158;2023-06-10T03:58:49;6.45;;;4.15;;
65328;SDS011;51941;52.210;5.158;2023-06-10T04:01:16;7.85;;;4.57;;
65328;SDS011;51941;52.210;5.158;2023-06-10T04:03:46;7.85;;;4.45;;
65328;SDS011;51941;52.210;5.158;2023-06-10T04:06:14;7.25;;;4.70;;
65328;SDS011;51941;52.210;5.158;2023-06-10T04:08:41;8.77;;;4.60;;
65328;SDS011;51941;52.210;5.158;2023-06-10T04:11:09;6.32;;;4.65;;
65328;SDS011;51941;52.210;5.158;2023-06-10T04:13:36;8.75;;;4.43;;
65328;SDS011;51941;52.210;5.158;2023-06-10T04:16:03;11.18;;;4.78;;
65328;SDS011;51941;52.210;5.158;2023-06-10T04:18:30;6.43;;;4.50;;
65328;SDS011;51941;52.210;5.158;2023-06-10T04:21:00;8.55;;;4.72;;
65328;SDS011;51941;52.210;5.158;2023-06-10T04:23:29;6.03;;;4.10;;
65328;SDS011;51941;52.210;5.158;2023-06-10T04:25:55;7.53;;;4.18;;
65328;SDS011;51941;52.210;5.158;2023-06-10T04:28:25;7.57;;;4.43;;
65328;SDS011;51941;52.210;5.158;2023-06-10T04:30:53;7.82;;;4.32;;
65328;SDS011;51941;52.210;5.158;2023-06-10T04:33:20;7.30;;;4.25;;
65328;SDS011;51941;52.210;5.158;2023-06-10T04:35:47;7.30;;;4.28;;
65328;SDS011;51941;52.210;5.158;2023-06-10T04:38:14;9.90;;;4.70;;
65328;SDS011;51941;52.210;5.158;2023-06-10T04:40:41;7.60;;;4.45;;
65328;SDS011;51941;52.210;5.158;2023-06-10T04:43:10;8.27;;;4.35;;
65328;SDS011;51941;52.210;5.158;2023-06-10T04:45:38;7.80;;;4.32;;
65328;SDS011;51941;52.210;5.158;2023-06-10T04:48:06;4.97;;;3.92;;
65328;SDS011;51941;52.210;5.158;2023-06-10T04:50:33;8.55;;;4.75;;
65328;SDS011;51941;52.210;5.158;2023-06-10T04:52:59;6.22;;;4.57;;
65328;SDS011;51941;52.210;5.158;2023-06-10T04:55:26;6.45;;;4.22;;
65328;SDS011;51941;52.210;5.158;2023-06-10T04:57:52;7.97;;;4.68;;
65328;SDS011;51941;52.210;5.158;2023-06-10T05:00:19;7.28;;;4.43;;
65328;SDS011;51941;52.210;5.158;2023-06-10T05:02:47;6.90;;;4.75;;
65328;SDS011;51941;52.210;5.158;2023-06-10T05:05:15;7.77;;;4.50;;
65328;SDS011;51941;52.210;5.158;2023-06-10T05:07:41;8.48;;;4.32;;
65328;SDS011;51941;52.210;5.158;2023-06-10T05:10:09;5.68;;;4.38;;
65328;SDS011;51941;52.210;5.158;2023-06-10T05:12:37;8.07;;;4.97;;
65328;SDS011;51941;52.210;5.158;2023-06-10T05:15:05;8.30;;;4.80;;
65328;SDS011;51941;52.210;5.158;2023-06-10T05:17:32;6.20;;;4.15;;
65328;SDS011;51941;52.210;5.158;2023-06-10T05:20:01;8.43;;;4.53;;
65328;SDS011;51941;52.210;5.158;2023-06-10T05:22:28;7.72;;;4.45;;
65328;SDS011;51941;52.210;5.158;2023-06-10T05:24:54;8.23;;;4.65;;
65328;SDS011;51941;52.210;5.158;2023-06-10T05:27:22;7.68;;;4.63;;
65328;SDS011;51941;52.210;5.158;2023-06-10T05:29:49;6.53;;;4.30;;
65328;SDS011;51941;52.210;5.158;2023-06-10T05:32:16;7.35;;;4.47;;
65328;SDS011;51941;52.210;5.158;2023-06-10T05:34:43;7.18;;;4.93;;
65328;SDS011;51941;52.210;5.158;2023-06-10T05:37:12;7.32;;;4.60;;
65328;SDS011;51941;52.210;5.158;2023-06-10T05:39:38;11.35;;;5.15;;
65328;SDS011;51941;52.210;5.158;2023-06-10T05:42:06;10.20;;;4.82;;
65328;SDS011;51941;52.210;5.158;2023-06-10T05:44:34;7.78;;;4.88;;
65328;SDS011;51941;52.210;5.158;2023-06-10T05:47:02;7.70;;;4.82;;
65328;SDS011;51941;52.210;5.158;2023-06-10T05:49:29;9.38;;;4.57;;
65328;SDS011;51941;52.210;5.158;2023-06-10T05:51:56;5.72;;;4.65;;
65328;SDS011;51941;52.210;5.158;2023-06-10T05:54:25;8.18;;;5.03;;
65328;SDS011;51941;52.210;5.158;2023-06-10T05:56:52;5.60;;;4.75;;
65328;SDS011;51941;52.210;5.158;2023-06-10T05:59:19;7.15;;;4.65;;
65328;SDS011;51941;52.210;5.158;2023-06-10T06:01:48;7.95;;;5.05;;
65328;SDS011;51941;52.210;5.158;2023-06-10T06:04:14;7.20;;;4.28;;
65328;SDS011;51941;52.210;5.158;2023-06-10T06:06:41;5.15;;;4.57;;
65328;SDS011;51941;52.210;5.158;2023-06-10T06:09:08;9.05;;;4.55;;
65328;SDS011;51941;52.210;5.158;2023-06-10T06:11:36;9.50;;;4.85;;
65328;SDS011;51941;52.210;5.158;2023-06-10T06:14:02;9.38;;;4.72;;
65328;SDS011;51941;52.210;5.158;2023-06-10T06:16:29;9.40;;;4.80;;
65328;SDS011;51941;52.210;5.158;2023-06-10T06:18:56;8.25;;;5.10;;
65328;SDS011;51941;52.210;5.158;2023-06-10T06:21:22;10.05;;;4.80;;
65328;SDS011;51941;52.210;5.158;2023-06-10T06:23:49;8.52;;;4.82;;
65328;SDS011;51941;52.210;5.158;2023-06-10T06:26:16;10.20;;;5.07;;
65328;SDS011;51941;52.210;5.158;2023-06-10T06:28:44;9.38;;;4.80;;
65328;SDS011;51941;52.210;5.158;2023-06-10T06:31:10;7.30;;;4.88;;
65328;SDS011;51941;52.210;5.158;2023-06-10T06:33:37;8.50;;;4.75;;
65328;SDS011;51941;52.210;5.158;2023-06-10T06:36:04;7.50;;;4.45;;
65328;SDS011;51941;52.210;5.158;2023-06-10T06:38:31;6.07;;;4.30;;
65328;SDS011;51941;52.210;5.158;2023-06-10T06:40:59;9.10;;;4.70;;
65328;SDS011;51941;52.210;5.158;2023-06-10T06:46:03;9.82;;;4.75;;
65328;SDS011;51941;52.210;5.158;2023-06-10T06:48:29;7.32;;;4.85;;
65328;SDS011;51941;52.210;5.158;2023-06-10T06:50:56;5.63;;;4.57;;
65328;SDS011;51941;52.210;5.158;2023-06-10T06:53:24;8.52;;;4.78;;
65328;SDS011;51941;52.210;5.158;2023-06-10T06:55:51;7.82;;;4.70;;
65328;SDS011;51941;52.210;5.158;2023-06-10T06:58:18;8.48;;;4.82;;
65328;SDS011;51941;52.210;5.158;2023-06-10T07:00:44;5.50;;;3.97;;
65328;SDS011;51941;52.210;5.158;2023-06-10T07:03:12;7.75;;;4.65;;
65328;SDS011;51941;52.210;5.158;2023-06-10T07:05:39;6.00;;;4.28;;
65328;SDS011;51941;52.210;5.158;2023-06-10T07:08:05;10.02;;;4.72;;
65328;SDS011;51941;52.210;5.158;2023-06-10T07:10:32;6.07;;;4.80;;
65328;SDS011;51941;52.210;5.158;2023-06-10T07:12:59;6.32;;;4.68;;
65328;SDS011;51941;52.210;5.158;2023-06-10T07:15:25;9.88;;;4.88;;
65328;SDS011;51941;52.210;5.158;2023-06-10T07:17:52;8.55;;;4.63;;
65328;SDS011;51941;52.210;5.158;2023-06-10T07:20:31;5.15;;;4.20;;
65328;SDS011;51941;52.210;5.158;2023-06-10T07:22:58;5.87;;;4.40;;
65328;SDS011;51941;52.210;5.158;2023-06-10T07:25:24;6.70;;;4.68;;
65328;SDS011;51941;52.210;5.158;2023-06-10T07:27:51;6.00;;;4.38;;
65328;SDS011;51941;52.210;5.158;2023-06-10T07:30:18;8.73;;;4.55;;
65328;SDS011;51941;52.210;5.158;2023-06-10T07:32:44;7.05;;;4.55;;
65328;SDS011;51941;52.210;5.158;2023-06-10T07:35:11;7.80;;;4.65;;
65328;SDS011;51941;52.210;5.158;2023-06-10T07:37:39;7.95;;;4.55;;
65328;SDS011;51941;52.210;5.158;2023-06-10T07:40:06;9.35;;;4.50;;
65328;SDS011;51941;52.210;5.158;2023-06-10T07:42:34;7.75;;;4.50;;
65328;SDS011;51941;52.210;5.158;2023-06-10T07:45:02;7.03;;;4.57;;
65328;SDS011;51941;52.210;5.158;2023-06-10T07:47:29;7.50;;;4.47;;
65328;SDS011;51941;52.210;5.158;2023-06-10T07:49:56;5.50;;;4.30;;
65328;SDS011;51941;52.210;5.158;2023-06-10T07:52:22;8.90;;;4.38;;
65328;SDS011;51941;52.210;5.158;2023-06-10T07:54:50;5.40;;;4.07;;
65328;SDS011;51941;52.210;5.158;2023-06-10T07:57:17;7.40;;;4.63;;
65328;SDS011;51941;52.210;5.158;2023-06-10T07:59:45;8.30;;;4.87;;
65328;SDS011;51941;52.210;5.158;2023-06-10T08:02:12;6.90;;;4.40;;
65328;SDS011;51941;52.210;5.158;2023-06-10T08:04:38;6.40;;;3.88;;
65328;SDS011;51941;52.210;5.158;2023-06-10T08:07:05;4.95;;;4.07;;
65328;SDS011;51941;52.210;5.158;2023-06-10T08:09:32;5.10;;;4.30;;
65328;SDS011;51941;52.210;5.158;2023-06-10T08:12:00;5.88;;;4.10;;
65328;SDS011;51941;52.210;5.158;2023-06-10T08:14:26;6.85;;;4.20;;
65328;SDS011;51941;52.210;5.158;2023-06-10T08:16:53;7.40;;;4.55;;
65328;SDS011;51941;52.210;5.158;2023-06-10T08:19:20;6.53;;;4.10;;
65328;SDS011;51941;52.210;5.158;2023-06-10T08:21:46;5.68;;;4.10;;
65328;SDS011;51941;52.210;5.158;2023-06-10T08:24:13;6.70;;;4.15;;
65328;SDS011;51941;52.210;5.158;2023-06-10T08:26:41;7.90;;;4.33;;
65328;SDS011;51941;52.210;5.158;2023-06-10T08:29:11;8.65;;;4.95;;
65328;SDS011;51941;52.210;5.158;2023-06-10T08:31:40;6.38;;;4.00;;
65328;SDS011;51941;52.210;5.158;2023-06-10T08:34:07;5.63;;;4.35;;
65328;SDS011;51941;52.210;5.158;2023-06-10T08:36:34;9.27;;;4.53;;
65328;SDS011;51941;52.210;5.158;2023-06-10T08:39:02;8.27;;;4.70;;
65328;SDS011;51941;52.210;5.158;2023-06-10T08:41:29;5.90;;;4.28;;
65328;SDS011;51941;52.210;5.158;2023-06-10T08:44:02;7.55;;;4.13;;
65328;SDS011;51941;52.210;5.158;2023-06-10T08:46:35;5.25;;;4.72;;
65328;SDS011;51941;52.210;5.158;2023-06-10T08:49:03;5.63;;;4.45;;
65328;SDS011;51941;52.210;5.158;2023-06-10T08:51:32;5.25;;;4.50;;
65328;SDS011;51941;52.210;5.158;2023-06-10T08:54:04;6.63;;;4.30;;
65328;SDS011;51941;52.210;5.158;2023-06-10T08:56:37;5.63;;;4.03;;
65328;SDS011;51941;52.210;5.158;2023-06-10T08:59:06;7.18;;;4.78;;
65328;SDS011;51941;52.210;5.158;2023-06-10T09:01:32;6.43;;;4.05;;
65328;SDS011;51941;52.210;5.158;2023-06-10T09:04:01;4.88;;;4.00;;
65328;SDS011;51941;52.210;5.158;2023-06-10T09:06:28;6.60;;;4.13;;
65328;SDS011;51941;52.210;5.158;2023-06-10T09:08:58;9.35;;;4.05;;
65328;SDS011;51941;52.210;5.158;2023-06-10T09:11:25;9.38;;;4.10;;
65328;SDS011;51941;52.210;5.158;2023-06-10T09:13:52;5.55;;;4.47;;
65328;SDS011;51941;52.210;5.158;2023-06-10T09:16:19;6.95;;;4.30;;
65328;SDS011;51941;52.210;5.158;2023-06-10T09:18:45;8.07;;;4.10;;
65328;SDS011;51941;52.210;5.158;2023-06-10T09:21:15;5.55;;;4.05;;
65328;SDS011;51941;52.210;5.158;2023-06-10T09:23:43;9.05;;;4.28;;
65328;SDS011;51941;52.210;5.158;2023-06-10T09:26:10;9.20;;;4.00;;
65328;SDS011;51941;52.210;5.158;2023-06-10T09:28:37;6.93;;;4.10;;
65328;SDS011;51941;52.210;5.158;2023-06-10T09:31:05;8.60;;;4.30;;
65328;SDS011;51941;52.210;5.158;2023-06-10T09:33:37;7.97;;;4.20;;
65328;SDS011;51941;52.210;5.158;2023-06-10T09:36:04;4.95;;;4.00;;
65328;SDS011;51941;52.210;5.158;2023-06-10T09:38:33;7.22;;;3.80;;
65328;SDS011;51941;52.210;5.158;2023-06-10T09:43:38;8.02;;;4.75;;
65328;SDS011;51941;52.210;5.158;2023-06-10T09:46:06;6.85;;;4.20;;
65328;SDS011;51941;52.210;5.158;2023-06-10T09:48:34;7.07;;;3.97;;
65328;SDS011;51941;52.210;5.158;2023-06-10T09:51:01;7.17;;;3.97;;
65328;SDS011;51941;52.210;5.158;2023-06-10T09:53:28;4.47;;;3.95;;
65328;SDS011;51941;52.210;5.158;2023-06-10T09:56:00;6.95;;;4.15;;
65328;SDS011;51941;52.210;5.158;2023-06-10T09:58:36;5.30;;;3.80;;
65328;SDS011;51941;52.210;5.158;2023-06-10T10:01:08;4.97;;;4.10;;
65328;SDS011;51941;52.210;5.158;2023-06-10T10:03:42;9.85;;;4.80;;
65328;SDS011;51941;52.210;5.158;2023-06-10T10:06:11;7.43;;;4.30;;
65328;SDS011;51941;52.210;5.158;2023-06-10T10:08:39;6.25;;;3.97;;
65328;SDS011;51941;52.210;5.158;2023-06-10T10:11:06;6.20;;;3.90;;
65328;SDS011;51941;52.210;5.158;2023-06-10T10:13:34;5.20;;;3.83;;
65328;SDS011;51941;52.210;5.158;2023-06-10T10:16:01;5.10;;;3.58;;
65328;SDS011;51941;52.210;5.158;2023-06-10T10:18:32;5.55;;;4.10;;
65328;SDS011;51941;52.210;5.158;2023-06-10T10:21:09;5.63;;;3.90;;
65328;SDS011;51941;52.210;5.158;2023-06-10T10:23:41;8.50;;;4.35;;
65328;SDS011;51941;52.210;5.158;2023-06-10T10:26:13;4.82;;;3.63;;
65328;SDS011;51941;52.210;5.158;2023-06-10T10:28:41;6.75;;;3.90;;
65328;SDS011;51941;52.210;5.158;2023-06-10T10:31:12;4.72;;;3.92;;
65328;SDS011;51941;52.210;5.158;2023-06-10T10:33:45;6.90;;;3.85;;
65328;SDS011;51941;52.210;5.158;2023-06-10T10:36:19;11.00;;;4.38;;
65328;SDS011;51941;52.210;5.158;2023-06-10T10:38:47;5.82;;;3.90;;
65328;SDS011;51941;52.210;5.158;2023-06-10T10:43:41;9.27;;;3.75;;
65328;SDS011;51941;52.210;5.158;2023-06-10T10:46:11;5.90;;;3.78;;
65328;SDS011;51941;52.210;5.158;2023-06-10T10:48:39;6.10;;;4.00;;
65328;SDS011;51941;52.210;5.158;2023-06-10T10:51:07;9.30;;;4.50;;
65328;SDS011;51941;52.210;5.158;2023-06-10T10:53:34;6.38;;;3.95;;
65328;SDS011;51941;52.210;5.158;2023-06-10T10:56:06;7.57;;;4.35;;
65328;SDS011;51941;52.210;5.158;2023-06-10T10:58:34;5.53;;;4.15;;
65328;SDS011;51941;52.210;5.158;2023-06-10T11:01:09;7.80;;;3.78;;
65328;SDS011;51941;52.210;5.158;2023-06-10T11:03:41;5.68;;;3.97;;
65328;SDS011;51941;52.210;5.158;2023-06-10T11:06:11;4.15;;;3.75;;
65328;SDS011;51941;52.210;5.158;2023-06-10T11:08:46;7.07;;;4.30;;
65328;SDS011;51941;52.210;5.158;2023-06-10T11:11:19;7.57;;;3.85;;
65328;SDS011;51941;52.210;5.158;2023-06-10T11:14:05;8.07;;;3.35;;
65328;SDS011;51941;52.210;5.158;2023-06-10T11:16:38;6.60;;;4.00;;
65328;SDS011;51941;52.210;5.158;2023-06-10T11:19:06;7.50;;;3.67;;
65328;SDS011;51941;52.210;5.158;2023-06-10T11:21:36;5.72;;;3.45;;
65328;SDS011;51941;52.210;5.158;2023-06-10T11:24:11;6.33;;;4.07;;
65328;SDS011;51941;52.210;5.158;2023-06-10T11:26:43;4.65;;;3.70;;
65328;SDS011;51941;52.210;5.158;2023-06-10T11:29:10;4.70;;;3.72;;
65328;SDS011;51941;52.210;5.158;2023-06-10T11:31:43;7.55;;;3.88;;
65328;SDS011;51941;52.210;5.158;2023-06-10T11:34:12;7.53;;;3.42;;
65328;SDS011;51941;52.210;5.158;2023-06-10T11:36:40;5.35;;;4.00;;
65328;SDS011;51941;52.210;5.158;2023-06-10T11:39:10;7.10;;;4.00;;
65328;SDS011;51941;52.210;5.158;2023-06-10T11:41:37;7.43;;;4.00;;
65328;SDS011;51941;52.210;5.158;2023-06-10T11:44:09;5.57;;;3.67;;
65328;SDS011;51941;52.210;5.158;2023-06-10T11:46:36;4.97;;;3.60;;
65328;SDS011;51941;52.210;5.158;2023-06-10T11:49:04;9.82;;;4.00;;
65328;SDS011;51941;52.210;5.158;2023-06-10T11:51:32;4.47;;;3.47;;
65328;SDS011;51941;52.210;5.158;2023-06-10T11:56:28;3.80;;;3.50;;
65328;SDS011;51941;52.210;5.158;2023-06-10T11:59:00;7.20;;;3.78;;
65328;SDS011;51941;52.210;5.158;2023-06-10T12:01:31;6.57;;;4.30;;
65328;SDS011;51941;52.210;5.158;2023-06-10T12:04:02;4.47;;;3.58;;
65328;SDS011;51941;52.210;5.158;2023-06-10T12:06:40;4.38;;;3.40;;
65328;SDS011;51941;52.210;5.158;2023-06-10T12:09:13;7.93;;;3.63;;
65328;SDS011;51941;52.210;5.158;2023-06-10T12:11:40;4.32;;;3.65;;
65328;SDS011;51941;52.210;5.158;2023-06-10T12:14:11;4.95;;;4.05;;
65328;SDS011;51941;52.210;5.158;2023-06-10T12:16:39;5.78;;;3.70;;
65328;SDS011;51941;52.210;5.158;2023-06-10T12:19:06;4.40;;;3.80;;
65328;SDS011;51941;52.210;5.158;2023-06-10T12:21:33;5.15;;;3.50;;
65328;SDS011;51941;52.210;5.158;2023-06-10T12:24:05;8.00;;;3.92;;
65328;SDS011;51941;52.210;5.158;2023-06-10T12:26:36;6.20;;;3.83;;
65328;SDS011;51941;52.210;5.158;2023-06-10T12:29:15;4.93;;;3.83;;
65328;SDS011;51941;52.210;5.158;2023-06-10T12:32:03;5.57;;;4.05;;
65328;SDS011;51941;52.210;5.158;2023-06-10T12:34:33;5.55;;;4.07;;
65328;SDS011;51941;52.210;5.158;2023-06-10T12:37:02;5.93;;;3.60;;
65328;SDS011;51941;52.210;5.158;2023-06-10T12:39:30;5.35;;;3.97;;
65328;SDS011;51941;52.210;5.158;2023-06-10T12:41:58;5.40;;;3.65;;
65328;SDS011;51941;52.210;5.158;2023-06-10T12:44:29;4.90;;;3.42;;
65328;SDS011;51941;52.210;5.158;2023-06-10T12:46:56;6.30;;;3.88;;
65328;SDS011;51941;52.210;5.158;2023-06-10T12:49:24;11.65;;;5.45;;
65328;SDS011;51941;52.210;5.158;2023-06-10T12:51:51;6.40;;;3.92;;
65328;SDS011;51941;52.210;5.158;2023-06-10T12:54:18;5.85;;;3.83;;
65328;SDS011;51941;52.210;5.158;2023-06-10T12:56:45;6.15;;;4.25;;
65328;SDS011;51941;52.210;5.158;2023-06-10T12:59:11;7.43;;;3.60;;
65328;SDS011;51941;52.210;5.158;2023-06-10T13:01:39;6.50;;;4.22;;
65328;SDS011;51941;52.210;5.158;2023-06-10T13:04:06;9.05;;;3.90;;
65328;SDS011;51941;52.210;5.158;2023-06-10T13:06:34;7.55;;;3.60;;
65328;SDS011;51941;52.210;5.158;2023-06-10T13:09:05;4.70;;;3.88;;
65328;SDS011;51941;52.210;5.158;2023-06-10T13:11:32;4.95;;;3.60;;
65328;SDS011;51941;52.210;5.158;2023-06-10T13:14:00;4.80;;;3.63;;
65328;SDS011;51941;52.210;5.158;2023-06-10T13:16:27;5.10;;;3.95;;
65328;SDS011;51941;52.210;5.158;2023-06-10T13:18:54;4.30;;;3.72;;
65328;SDS011;51941;52.210;5.158;2023-06-10T13:21:21;5.95;;;3.25;;
65328;SDS011;51941;52.210;5.158;2023-06-10T13:23:52;4.85;;;3.90;;
65328;SDS011;51941;52.210;5.158;2023-06-10T13:26:19;5.38;;;3.75;;
65328;SDS011;51941;52.210;5.158;2023-06-10T13:28:46;5.28;;;3.85;;
65328;SDS011;51941;52.210;5.158;2023-06-10T13:31:13;6.22;;;4.00;;
65328;SDS011;51941;52.210;5.158;2023-06-10T13:33:40;6.90;;;4.20;;
65328;SDS011;51941;52.210;5.158;2023-06-10T13:36:08;5.25;;;3.70;;
65328;SDS011;51941;52.210;5.158;2023-06-10T13:38:35;6.03;;;3.97;;
65328;SDS011;51941;52.210;5.158;2023-06-10T13:41:03;5.30;;;3.58;;
65328;SDS011;51941;52.210;5.158;2023-06-10T13:43:31;4.57;;;3.95;;
65328;SDS011;51941;52.210;5.158;2023-06-10T13:45:57;5.40;;;3.72;;
65328;SDS011;51941;52.210;5.158;2023-06-10T13:48:24;7.13;;;4.10;;
65328;SDS011;51941;52.210;5.158;2023-06-10T13:50:52;5.47;;;3.75;;
65328;SDS011;51941;52.210;5.158;2023-06-10T13:53:18;4.50;;;4.10;;
65328;SDS011;51941;52.210;5.158;2023-06-10T13:55:45;7.80;;;3.90;;
65328;SDS011;51941;52.210;5.158;2023-06-10T13:58:13;6.22;;;3.75;;
65328;SDS011;51941;52.210;5.158;2023-06-10T14:00:39;6.82;;;3.90;;
65328;SDS011;51941;52.210;5.158;2023-06-10T14:03:06;5.22;;;4.30;;
65328;SDS011;51941;52.210;5.158;2023-06-10T14:05:33;4.45;;;3.90;;
65328;SDS011;51941;52.210;5.158;2023-06-10T14:08:00;5.80;;;3.78;;
65328;SDS011;51941;52.210;5.158;2023-06-10T14:10:26;5.93;;;4.10;;
65328;SDS011;51941;52.210;5.158;2023-06-10T14:12:53;5.75;;;4.60;;
65328;SDS011;51941;52.210;5.158;2023-06-10T14:15:21;5.13;;;3.88;;
65328;SDS011;51941;52.210;5.158;2023-06-10T14:17:48;4.75;;;3.90;;
65328;SDS011;51941;52.210;5.158;2023-06-10T14:20:14;5.85;;;4.00;;
65328;SDS011;51941;52.210;5.158;2023-06-10T14:22:41;4.15;;;3.75;;
65328;SDS011;51941;52.210;5.158;2023-06-10T14:25:08;4.28;;;3.83;;
65328;SDS011;51941;52.210;5.158;2023-06-10T14:27:36;4.70;;;3.63;;
65328;SDS011;51941;52.210;5.158;2023-06-10T14:30:03;6.90;;;4.00;;
65328;SDS011;51941;52.210;5.158;2023-06-10T14:32:32;4.10;;;3.67;;
65328;SDS011;51941;52.210;5.158;2023-06-10T14:34:58;4.68;;;3.58;;
65328;SDS011;51941;52.210;5.158;2023-06-10T14:37:25;5.63;;;3.72;;
65328;SDS011;51941;52.210;5.158;2023-06-10T14:39:51;5.95;;;3.67;;
65328;SDS011;51941;52.210;5.158;2023-06-10T14:42:18;5.53;;;3.83;;
65328;SDS011;51941;52.210;5.158;2023-06-10T14:44:45;5.82;;;3.53;;
65328;SDS011;51941;52.210;5.158;2023-06-10T14:47:12;6.50;;;3.63;;
65328;SDS011;51941;52.210;5.158;2023-06-10T14:49:40;5.82;;;3.50;;
65328;SDS011;51941;52.210;5.158;2023-06-10T14:52:09;5.20;;;3.65;;
65328;SDS011;51941;52.210;5.158;2023-06-10T14:54:35;4.50;;;3.70;;
65328;SDS011;51941;52.210;5.158;2023-06-10T14:57:02;5.55;;;3.38;;
65328;SDS011;51941;52.210;5.158;2023-06-10T14:59:30;5.10;;;3.40;;
65328;SDS011;51941;52.210;5.158;2023-06-10T15:01:57;6.50;;;3.30;;
65328;SDS011;51941;52.210;5.158;2023-06-10T15:04:25;5.63;;;3.43;;
65328;SDS011;51941;52.210;5.158;2023-06-10T15:06:53;6.68;;;3.30;;
65328;SDS011;51941;52.210;5.158;2023-06-10T15:09:20;6.50;;;3.55;;